Observations

BIA Manual Entry


Date Temp Humidity Rainfall Dew Point Wind Direction Wind Speed Wind Pressure Condition Visibility
2025-06-09 14:42:30 1 1 1-1 waitfor delay '0:0:15' -- 1 1 1 1 Partly Cloudy (Day) 1
2025-06-09 14:42:29 1 1 -1' OR 3*2 1 1 1 1 Partly Cloudy (Night) 1
2025-06-09 14:42:28 1 1 1-1) OR 258=(SELECT 258 FROM PG_SLEEP(15))-- 1 1 1 1 Partly Cloudy (Night) 1
2025-06-09 14:42:27 1 1 -1' OR 3+918-918-1=0+0+0+1 -- 1 1 1 1 Partly Cloudy (Night) 1
2025-06-09 14:42:26 1 1 1 1 1 1 15sapadXi'; waitfor delay '0:0:15' -- Cloudy 1
2025-06-09 14:42:25 1 1 -1' OR 2+918-918-1=0+0+0+1 -- 1 1 1 1 Partly Cloudy (Night) 1
2025-06-09 14:42:24 1 1 1-1 waitfor delay '0:0:15' -- 1 1 1 1 Cloudy 1
2025-06-09 14:42:23 1 1 -1 OR 3*2>(0+5+409-409) 1 1 1 1 Partly Cloudy (Night) 1
2025-06-09 14:42:22 1 1 1-1); waitfor delay '0:0:15' -- 1 1 1 1 Partly Cloudy (Day) 1
2025-06-09 14:42:21 1 1 -1 OR 3*2 1 1 1 1 Partly Cloudy (Night) 1
2025-06-09 14:42:20 1 1 1-1 waitfor delay '0:0:15' -- 1 1 1 1 Cloudy 1
2025-06-09 14:42:19 1 1 -1 OR 3+409-409-1=0+0+0+1 1 1 1 1 Partly Cloudy (Night) 1
2025-06-09 14:42:19 1 1 1-1)); waitfor delay '0:0:15' -- 1 1 1 1 Partly Cloudy (Day) 1
2025-06-09 14:42:18 1 1 -1 OR 2+409-409-1=0+0+0+1 1 1 1 1 Partly Cloudy (Night) 1
2025-06-09 14:42:17 1 1 1-1 OR 360=(SELECT 360 FROM PG_SLEEP(15))-- 1 1 1 1 Partly Cloudy (Night) 1
2025-06-09 14:42:16 1 1 -1 OR 3*2>(0+5+124-124) -- 1 1 1 1 Partly Cloudy (Night) 1
2025-06-09 14:42:15 1 1 1 1 1 1 1-1 waitfor delay '0:0:15' -- Cloudy 1
2025-06-09 14:42:14 1 1 -1 OR 3*2 1 1 1 1 Partly Cloudy (Night) 1
2025-06-09 14:42:13 1 1 1-1)); waitfor delay '0:0:15' -- 1 1 1 1 Cloudy 1
2025-06-09 14:42:12 1 1 -1 OR 3+124-124-1=0+0+0+1 -- 1 1 1 1 Partly Cloudy (Night) 1
2025-06-09 14:42:11 1 1 1-1; waitfor delay '0:0:15' -- 1 1 1 1 Partly Cloudy (Day) 1
2025-06-09 14:42:10 1 1 -1 OR 2+124-124-1=0+0+0+1 -- 1 1 1 1 Partly Cloudy (Night) 1
2025-06-09 14:42:09 1 1 1-1)); waitfor delay '0:0:15' -- 1 1 1 1 Cloudy 1
2025-06-09 14:42:08 1 1 1 1 1 1 1 Partly Cloudy (Night) 1
2025-06-09 14:42:07 1 1 1-1); waitfor delay '0:0:15' -- 1 1 1 1 Partly Cloudy (Day) 1